Time;durP1;ratioP1;P1;durP2;ratioP2;P2;SDS_P1;SDS_P2;PMS_P1;PMS_P2;Temp;Humidity;BMP_temperature;BMP_pressure;BME280_temperature;BME280_humidity;BME280_pressure;Samples;Min_cycle;Max_cycle;Signal;HPM_P1;HPM_P2
2022/08/04 00:01:46;;;;;;;7.32;3.90;;;;;;;19.93;58.14;95610.59;5086226;28;20022;-79
2022/08/04 00:04:36;;;;;;;6.80;3.38;;;;;;;19.82;58.45;95612.22;5084602;28;20028;-80
2022/08/04 00:07:19;;;;;;;6.03;3.85;;;;;;;19.81;59.01;95610.56;5086674;28;20090;-79
2022/08/04 00:10:04;;;;;;;4.80;3.78;;;;;;;19.71;59.21;95595.63;5070498;28;20420;-79
2022/08/04 00:12:34;;;;;;;5.88;3.53;;;;;;;19.70;59.21;95602.13;5067600;28;20460;-79
2022/08/04 00:15:01;;;;;;;5.85;3.75;;;;;;;19.70;58.96;95606.75;5069714;28;20468;-78
2022/08/04 00:17:45;;;;;;;8.32;3.83;;;;;;;19.73;58.96;95611.72;5085044;28;20506;-79
2022/08/04 00:20:11;;;;;;;5.00;3.58;;;;;;;19.74;58.95;95605.22;5086343;28;20464;-79
2022/08/04 00:22:38;;;;;;;7.35;4.18;;;;;;;19.75;59.02;95606.88;5073314;28;20023;-79
2022/08/04 00:25:04;;;;;;;6.95;3.78;;;;;;;19.75;59.24;95604.16;5089631;28;20107;-79
2022/08/04 00:27:30;;;;;;;7.68;3.50;;;;;;;19.76;59.10;95608.53;5073394;28;20124;-79
2022/08/04 00:29:56;;;;;;;5.35;3.33;;;;;;;19.80;58.58;95617.09;5071712;28;20021;-79
2022/08/04 00:32:21;;;;;;;6.50;3.55;;;;;;;19.78;58.20;95617.28;5056327;28;20517;-79
2022/08/04 00:34:47;;;;;;;7.43;3.72;;;;;;;19.77;58.17;95613.75;5088825;28;20036;-79
2022/08/04 00:37:12;;;;;;;6.13;3.63;;;;;;;19.71;58.66;95609.25;5090947;28;20024;-79
2022/08/04 00:39:38;;;;;;;4.63;3.88;;;;;;;19.69;58.58;95615.97;5089237;28;20024;-79
2022/08/04 00:42:10;;;;;;;5.28;3.83;;;;;;;19.62;58.71;95616.88;5088593;28;20031;-80
2022/08/04 00:45:01;;;;;;;4.10;3.60;;;;;;;19.60;58.69;95607.31;5073096;28;20035;-79
2022/08/04 00:47:36;;;;;;;6.72;3.58;;;;;;;19.58;58.89;95620.28;5073571;28;20032;-79
2022/08/04 00:50:08;;;;;;;4.57;3.53;;;;;;;19.57;58.84;95613.22;5089254;28;20024;-79
2022/08/04 00:52:46;;;;;;;4.85;3.58;;;;;;;19.57;59.02;95614.00;5088361;28;20498;-78
2022/08/04 00:55:26;;;;;;;4.80;3.50;;;;;;;19.57;58.92;95616.72;5089479;28;20112;-78
2022/08/04 00:58:12;;;;;;;5.80;3.80;;;;;;;19.57;59.04;95608.56;5090954;28;20167;-78
2022/08/04 01:01:05;;;;;;;5.53;3.80;;;;;;;19.50;59.37;95616.00;5089138;28;20043;-79
2022/08/04 01:03:45;;;;;;;6.72;3.65;;;;;;;19.50;59.51;95619.56;5081574;28;20516;-79
2022/08/04 01:06:37;;;;;;;6.90;3.70;;;;;;;19.45;59.37;95615.84;5090208;28;20032;-79
2022/08/04 01:09:12;;;;;;;5.05;3.40;;;;;;;19.42;58.96;95619.88;5087699;28;20495;-79
2022/08/04 01:11:53;;;;;;;4.88;3.05;;;;;;;19.34;58.81;95622.91;5089438;28;20046;-79
2022/08/04 01:14:46;;;;;;;6.35;3.47;;;;;;;19.34;58.99;95622.91;5089108;28;20484;-79
2022/08/04 01:17:20;;;;;;;3.75;3.13;;;;;;;19.24;59.06;95626.16;5070579;28;20078;-79
2022/08/04 01:19:48;;;;;;;4.38;3.63;;;;;;;19.15;59.35;95626.44;5088855;28;20099;-79
2022/08/04 01:22:43;;;;;;;4.53;3.40;;;;;;;19.10;59.86;95634.44;5088161;28;20032;-79
2022/08/04 01:25:41;;;;;;;4.07;3.05;;;;;;;19.10;59.82;95637.16;5050528;28;20537;-78
2022/08/04 01:28:12;;;;;;;6.00;3.45;;;;;;;19.05;59.99;95628.84;5089750;28;20502;-78
2022/08/04 01:30:37;;;;;;;3.78;3.38;;;;;;;19.04;59.63;95627.16;5087022;28;20131;-78
2022/08/04 01:33:06;;;;;;;5.38;3.40;;;;;;;19.15;59.68;95633.81;5071502;28;20032;-78
2022/08/04 01:35:49;;;;;;;5.97;3.33;;;;;;;19.21;58.88;95634.75;5087136;28;20162;-79
2022/08/04 01:38:24;;;;;;;10.32;4.28;;;;;;;19.21;58.71;95632.03;5072449;28;20024;-78
2022/08/04 01:40:58;;;;;;;4.18;3.53;;;;;;;19.08;59.39;95631.13;5088217;28;20042;-79
2022/08/04 01:43:26;;;;;;;6.10;3.90;;;;;;;19.05;59.57;95628.00;5087021;28;20028;-79
2022/08/04 01:45:56;;;;;;;5.25;3.67;;;;;;;19.05;59.24;95631.56;5072034;28;20481;-79
2022/08/04 01:48:23;;;;;;;6.30;3.70;;;;;;;19.02;58.97;95626.59;5069827;28;20470;-78
2022/08/04 01:50:49;;;;;;;4.05;3.55;;;;;;;18.95;59.08;95625.81;5071909;28;20051;-79
2022/08/04 01:53:15;;;;;;;4.70;3.83;;;;;;;18.89;59.26;95622.94;5070154;28;20498;-79
2022/08/04 01:55:40;;;;;;;4.72;3.53;;;;;;;18.89;59.15;95631.09;5089737;28;20024;-79
2022/08/04 01:58:06;;;;;;;5.22;4.00;;;;;;;18.83;58.85;95632.00;5070799;28;20089;-80
2022/08/04 02:00:31;;;;;;;6.97;3.50;;;;;;;18.82;58.25;95619.47;5069875;28;20052;-79
2022/08/04 02:02:57;;;;;;;7.15;3.80;;;;;;;18.80;58.57;95621.56;5089692;28;20023;-79
2022/08/04 02:05:24;;;;;;;4.45;3.35;;;;;;;18.79;58.50;95614.50;5069881;28;20035;-79
2022/08/04 02:08:14;;;;;;;5.60;3.88;;;;;;;18.73;58.85;95615.38;5088619;28;20032;-79
2022/08/04 02:10:42;;;;;;;5.22;3.63;;;;;;;18.62;58.93;95619.69;5086952;28;20031;-79
2022/08/04 02:13:30;;;;;;;5.22;3.90;;;;;;;18.59;59.26;95630.97;5089417;28;20032;-79
2022/08/04 02:16:14;;;;;;;5.38;3.53;;;;;;;18.57;59.68;95633.09;5089096;28;20031;-79
2022/08/04 02:19:14;;;;;;;6.20;4.15;;;;;;;18.59;59.40;95630.97;5086995;28;20031;-79
2022/08/04 02:21:40;;;;;;;5.03;4.28;;;;;;;18.52;59.72;95621.00;5006594;28;20420;-79
2022/08/04 02:24:07;;;;;;;5.97;4.35;;;;;;;18.50;59.33;95625.00;5065549;28;20492;-79
2022/08/04 02:26:33;;;;;;;5.22;3.72;;;;;;;18.47;59.64;95629.00;5087136;28;20124;-79
2022/08/04 02:29:16;;;;;;;6.45;3.97;;;;;;;18.46;60.22;95626.50;5087279;28;20027;-79
2022/08/04 02:31:55;;;;;;;5.43;3.83;;;;;;;18.47;60.41;95629.00;5087185;28;20107;-79
2022/08/04 02:34:28;;;;;;;6.43;3.97;;;;;;;18.41;60.85;95625.28;5071383;28;20107;-79
2022/08/04 02:36:53;;;;;;;9.25;4.60;;;;;;;18.40;61.00;95628.22;5069511;28;20032;-79
2022/08/04 02:39:22;;;;;;;6.95;4.22;;;;;;;18.40;61.10;95636.34;5091189;28;20028;-79
2022/08/04 02:41:48;;;;;;;7.72;4.35;;;;;;;18.45;60.86;95635.69;5088704;28;20069;-79
2022/08/04 02:44:23;;;;;;;12.85;4.90;;;;;;;18.49;60.68;95631.50;5085526;28;20016;-78
2022/08/04 02:46:51;;;;;;;13.52;5.15;;;;;;;18.49;60.25;95629.59;5071641;28;20024;-79
2022/08/04 02:49:16;;;;;;;8.25;4.13;;;;;;;18.46;60.51;95629.22;5068815;28;20038;-78
2022/08/04 02:51:44;;;;;;;5.53;4.45;;;;;;;18.43;60.38;95635.09;5086953;28;20029;-78
2022/08/04 02:54:10;;;;;;;4.80;4.30;;;;;;;18.39;60.58;95632.81;5086722;28;20032;-79
2022/08/04 02:56:36;;;;;;;5.15;4.35;;;;;;;18.35;60.72;95625.31;5069678;28;20024;-79
2022/08/04 02:59:07;;;;;;;6.35;4.85;;;;;;;18.35;60.89;95628.88;5085866;28;20024;-78
2022/08/04 03:01:32;;;;;;;8.90;4.43;;;;;;;18.38;60.81;95641.19;5085870;28;20551;-78
2022/08/04 03:04:17;;;;;;;8.48;4.32;;;;;;;18.42;60.46;95636.97;5053236;28;20020;-80
2022/08/04 03:07:05;;;;;;;9.57;5.40;;;;;;;18.21;60.88;95643.63;5069028;28;20028;-78
2022/08/04 03:09:41;;;;;;;6.32;4.97;;;;;;;18.33;60.59;95643.75;5086686;28;20471;-79
2022/08/04 03:12:39;;;;;;;7.25;4.65;;;;;;;18.31;60.13;95641.25;5085966;28;20028;-79
2022/08/04 03:15:10;;;;;;;5.32;4.40;;;;;;;18.23;60.02;95634.19;5055020;28;20036;-79
2022/08/04 03:17:57;;;;;;;6.13;4.70;;;;;;;18.18;60.10;95636.75;5088012;28;20036;-79
2022/08/04 03:20:49;;;;;;;7.30;4.97;;;;;;;18.21;60.28;95640.91;5086775;28;20024;-79
2022/08/04 03:23:28;;;;;;;5.80;4.28;;;;;;;18.16;60.30;95636.97;5055984;28;20063;-79
2022/08/04 03:26:22;;;;;;;5.30;4.60;;;;;;;18.22;60.36;95637.13;5069278;28;20117;-78
2022/08/04 03:29:05;;;;;;;11.70;4.43;;;;;;;18.22;60.91;95637.13;5084556;28;20035;-79
2022/08/04 03:31:51;;;;;;;8.40;5.80;;;;;;;18.18;61.07;95635.91;5086376;28;20448;-78
2022/08/04 03:34:41;;;;;;;8.05;4.72;;;;;;;18.13;61.45;95640.13;5086789;28;20485;-79
2022/08/04 03:37:35;;;;;;;6.45;4.80;;;;;;;18.09;61.09;95635.34;5084687;28;20020;-78
2022/08/04 03:40:40;;;;;;;8.57;4.80;;;;;;;17.99;62.17;95635.81;5085685;28;20049;-78
2022/08/04 03:43:53;;;;;;;9.57;5.43;;;;;;;18.04;61.02;95641.38;5086344;28;20107;-78
2022/08/04 03:46:43;;;;;;;10.60;4.97;;;;;;;18.03;61.17;95637.03;5003999;28;20056;-78
2022/08/04 03:49:29;;;;;;;6.82;4.28;;;;;;;18.03;61.91;95629.72;4988511;28;20121;-79
2022/08/04 03:55:13;;;;;;;7.38;5.03;;;;;;;18.05;61.87;95632.22;5084366;28;20430;-79
2022/08/04 03:58:22;;;;;;;8.13;4.95;;;;;;;18.00;61.79;95632.03;5086906;28;20116;-79
2022/08/04 04:01:25;;;;;;;7.28;5.13;;;;;;;18.09;61.05;95638.84;5054029;28;20055;-79
2022/08/04 04:03:58;;;;;;;9.97;5.03;;;;;;;18.10;61.10;95645.97;5084623;28;20113;-78
2022/08/04 04:07:08;;;;;;;10.00;4.70;;;;;;;18.15;61.18;95645.34;5085718;28;20533;-78
2022/08/04 04:09:52;;;;;;;13.43;5.15;;;;;;;18.12;60.85;95643.88;5005094;28;20756;-78
2022/08/04 04:12:36;;;;;;;5.82;4.68;;;;;;;18.14;60.89;95636.34;4987133;28;20053;-79
2022/08/04 04:15:17;;;;;;;8.50;5.30;;;;;;;18.26;61.12;95649.22;5062763;28;20043;-79
2022/08/04 04:18:01;;;;;;;8.02;5.43;;;;;;;18.28;60.91;95647.94;5086860;28;20160;-80
2022/08/04 04:20:48;;;;;;;7.00;5.25;;;;;;;18.34;61.02;95646.25;5085289;28;20111;-78
2022/08/04 04:23:25;;;;;;;8.05;4.93;;;;;;;18.35;61.39;95653.31;5085725;28;20024;-79
2022/08/04 04:26:03;;;;;;;7.57;4.93;;;;;;;18.36;61.51;95652.25;5085925;28;20024;-79
2022/08/04 04:28:29;;;;;;;9.10;4.82;;;;;;;18.47;61.25;95647.16;5084826;28;20020;-78
2022/08/04 04:31:16;;;;;;;6.25;4.90;;;;;;;18.57;60.73;95650.19;5085215;28;20027;-79
2022/08/04 04:34:18;;;;;;;6.13;4.95;;;;;;;18.55;60.91;95657.75;5085107;28;20111;-79
2022/08/04 04:37:02;;;;;;;7.57;5.13;;;;;;;18.58;60.56;95656.47;5086584;28;20084;-79
2022/08/04 04:39:32;;;;;;;8.88;5.13;;;;;;;18.62;60.33;95647.66;5086229;28;20028;-79
2022/08/04 04:42:25;;;;;;;9.75;6.80;;;;;;;18.57;60.87;95663.78;5067065;28;20120;-80
2022/08/04 04:44:58;;;;;;;6.72;4.93;;;;;;;18.62;60.96;95661.22;5086625;28;20118;-79
2022/08/04 04:47:44;;;;;;;6.32;5.05;;;;;;;18.62;61.30;95655.00;5084117;28;20031;-79
2022/08/04 04:50:16;;;;;;;9.80;5.78;;;;;;;18.66;61.39;95658.91;5084300;28;20078;-79
2022/08/04 04:52:48;;;;;;;6.13;5.18;;;;;;;18.71;61.34;95660.97;5068779;28;20024;-79
2022/08/04 04:55:23;;;;;;;6.47;5.57;;;;;;;18.83;60.70;95659.16;5066846;28;20024;-78
2022/08/04 04:57:52;;;;;;;7.40;5.40;;;;;;;18.94;60.43;95654.91;5052131;28;20029;-79
2022/08/04 05:00:18;;;;;;;6.78;4.88;;;;;;;19.01;60.31;95654.81;5083408;28;20108;-79
2022/08/04 05:03:02;;;;;;;7.55;5.30;;;;;;;19.08;60.55;95652.03;5084998;28;20028;-79
2022/08/04 05:05:56;;;;;;;6.20;4.82;;;;;;;19.18;60.93;95654.25;5068117;28;20312;-79
2022/08/04 05:08:36;;;;;;;10.48;5.40;;;;;;;19.25;60.99;95663.16;5071662;28;20044;-79
2022/08/04 05:11:26;;;;;;;7.95;5.03;;;;;;;19.38;61.11;95662.16;5090169;28;20035;-79
2022/08/04 05:13:53;;;;;;;5.68;4.65;;;;;;;19.52;60.77;95668.28;5089821;28;20038;-79
2022/08/04 05:16:40;;;;;;;7.75;5.65;;;;;;;19.54;60.47;95663.44;5070810;28;20092;-79
2022/08/04 05:19:08;;;;;;;7.25;5.70;;;;;;;19.66;60.25;95659.94;5073793;28;20139;-79
2022/08/04 05:22:05;;;;;;;8.15;5.50;;;;;;;19.60;60.35;95661.72;5088500;28;20028;-79
2022/08/04 05:24:33;;;;;;;5.75;5.15;;;;;;;19.67;59.95;95662.44;5082405;28;20064;-79
2022/08/04 05:27:01;;;;;;;6.03;5.18;;;;;;;19.73;60.31;95660.72;5071671;28;20032;-79
2022/08/04 05:29:34;;;;;;;7.72;5.47;;;;;;;19.81;60.22;95654.94;5070511;28;20426;-79
2022/08/04 05:32:01;;;;;;;6.65;5.43;;;;;;;19.78;60.23;95655.38;5071406;28;20051;-79
2022/08/04 05:34:28;;;;;;;8.07;5.40;;;;;;;19.82;60.11;95656.59;5069923;28;20479;-80
2022/08/04 05:37:10;;;;;;;6.40;5.70;;;;;;;19.93;59.77;95665.03;5071748;28;20028;-80
2022/08/04 05:39:41;;;;;;;6.32;5.72;;;;;;;19.81;59.80;95668.56;5053548;28;20138;-80
2022/08/04 05:42:06;;;;;;;6.75;6.05;;;;;;;19.99;59.77;95670.38;5071159;28;20051;-80
2022/08/04 05:44:31;;;;;;;7.03;5.68;;;;;;;20.32;59.42;95675.59;5070710;28;20498;-80
2022/08/04 05:46:57;;;;;;;6.82;5.82;;;;;;;20.49;59.77;95664.88;5086918;28;20490;-80
2022/08/04 05:49:23;;;;;;;10.10;6.35;;;;;;;20.51;59.15;95668.19;5088199;28;20054;-80
2022/08/04 05:51:49;;;;;;;9.25;5.85;;;;;;;20.59;58.59;95667.00;5069694;28;20016;-79
2022/08/04 05:54:14;;;;;;;12.68;6.32;;;;;;;20.49;58.86;95665.69;5071105;28;20335;-80
2022/08/04 05:56:40;;;;;;;8.82;6.10;;;;;;;20.73;58.36;95673.06;5069293;28;20039;-80
2022/08/04 05:59:05;;;;;;;8.30;6.45;;;;;;;20.98;57.66;95674.75;5070703;28;20039;-80
2022/08/04 06:01:31;;;;;;;6.72;5.80;;;;;;;21.17;57.05;95671.88;5069683;28;20044;-79
2022/08/04 06:03:56;;;;;;;8.40;6.00;;;;;;;21.32;57.06;95666.78;5086749;28;20559;-79
2022/08/04 06:06:22;;;;;;;6.85;6.10;;;;;;;21.28;56.52;95672.97;5070786;28;20021;-79
2022/08/04 06:08:50;;;;;;;7.93;6.47;;;;;;;21.51;56.15;95674.81;5074065;28;20076;-78
2022/08/04 06:11:18;;;;;;;11.27;6.57;;;;;;;21.64;55.67;95681.88;5089581;28;20047;-79
2022/08/04 06:13:51;;;;;;;8.05;6.30;;;;;;;21.38;56.95;95681.34;5085989;28;20044;-79
2022/08/04 06:16:21;;;;;;;9.88;6.40;;;;;;;21.46;56.96;95677.41;5071425;28;20536;-79
2022/08/04 06:18:47;;;;;;;7.10;6.05;;;;;;;21.47;57.07;95677.16;5086289;28;20486;-79
2022/08/04 06:21:12;;;;;;;6.72;5.93;;;;;;;21.59;56.98;95677.16;5070235;28;20028;-79
2022/08/04 06:23:38;;;;;;;7.22;5.63;;;;;;;21.65;57.08;95680.81;5069930;28;20028;-80
2022/08/04 06:26:03;;;;;;;8.13;5.90;;;;;;;21.40;57.28;95678.38;5069003;28;20024;-79
2022/08/04 06:28:29;;;;;;;9.60;6.70;;;;;;;21.29;57.69;95678.19;5069886;28;20047;-80
2022/08/04 06:30:56;;;;;;;10.43;7.07;;;;;;;21.33;57.43;95671.16;5068714;28;20074;-79
2022/08/04 06:33:40;;;;;;;7.03;6.30;;;;;;;21.35;57.61;95671.75;5070741;28;20028;-79
2022/08/04 06:36:05;;;;;;;9.75;5.72;;;;;;;21.42;57.46;95673.53;5086269;28;20031;-80
2022/08/04 06:38:31;;;;;;;9.27;6.32;;;;;;;21.79;57.28;95672.38;5086135;28;20269;-80
2022/08/04 06:40:57;;;;;;;7.72;6.35;;;;;;;21.94;55.75;95669.94;5087678;28;20028;-80
2022/08/04 06:43:23;;;;;;;8.00;6.40;;;;;;;22.04;55.42;95672.03;5085878;28;20081;-79
2022/08/04 06:45:48;;;;;;;9.18;6.38;;;;;;;22.18;55.51;95671.75;5069908;28;20032;-80
2022/08/04 06:48:15;;;;;;;7.47;5.90;;;;;;;22.21;55.11;95665.78;5068588;28;20472;-80
2022/08/04 06:50:41;;;;;;;8.43;6.38;;;;;;;22.49;54.89;95664.06;5069925;28;20455;-80
2022/08/04 06:53:06;;;;;;;6.88;6.13;;;;;;;22.47;54.69;95668.97;5068455;28;20399;-80
2022/08/04 06:55:32;;;;;;;9.82;6.28;;;;;;;22.73;54.27;95663.97;5088095;28;20023;-79
2022/08/04 06:57:58;;;;;;;12.38;6.25;;;;;;;22.89;53.79;95661.47;5068610;28;20047;-80
2022/08/04 07:00:23;;;;;;;6.43;5.68;;;;;;;22.95;54.01;95661.28;5068289;28;20097;-80
2022/08/04 07:02:52;;;;;;;8.50;5.85;;;;;;;23.05;53.93;95662.50;5086376;28;20075;-80
2022/08/04 07:05:18;;;;;;;8.07;6.35;;;;;;;22.81;54.01;95659.97;5068364;28;20058;-80
2022/08/04 07:07:43;;;;;;;7.63;6.35;;;;;;;23.09;53.71;95667.22;5069560;28;20020;-80
2022/08/04 07:10:09;;;;;;;7.25;6.18;;;;;;;23.19;53.40;95669.28;5067889;28;20023;-80
2022/08/04 07:12:35;;;;;;;8.65;6.45;;;;;;;23.50;52.54;95663.44;5086236;28;20089;-80
2022/08/04 07:15:00;;;;;;;9.40;6.40;;;;;;;23.83;52.84;95661.63;5067777;28;20070;-80
2022/08/04 07:17:26;;;;;;;9.02;6.40;;;;;;;23.76;51.99;95661.00;5068827;28;20023;-80
2022/08/04 07:19:51;;;;;;;8.02;5.95;;;;;;;23.64;52.63;95652.91;5068599;28;20039;-81
2022/08/04 07:22:17;;;;;;;8.98;6.13;;;;;;;23.67;53.10;95648.81;5086693;28;20484;-80
2022/08/04 07:24:44;;;;;;;6.60;5.68;;;;;;;23.80;52.78;95648.44;5086184;28;20106;-80
2022/08/04 07:27:09;;;;;;;8.88;6.80;;;;;;;23.89;53.15;95657.00;5085745;28;20039;-80
2022/08/04 07:29:35;;;;;;;8.40;5.75;;;;;;;23.90;51.87;95647.72;5068760;28;20020;-80
2022/08/04 07:32:00;;;;;;;8.98;6.35;;;;;;;23.85;51.52;95649.56;5084574;28;20032;-80
2022/08/04 07:34:26;;;;;;;8.95;6.32;;;;;;;23.94;51.47;95646.13;5069316;28;20028;-81
2022/08/04 07:36:54;;;;;;;6.70;5.82;;;;;;;23.77;51.43;95643.47;5051020;28;20036;-81
2022/08/04 07:39:20;;;;;;;7.55;5.88;;;;;;;23.64;51.27;95641.97;5086467;28;20052;-80
2022/08/04 07:41:46;;;;;;;8.45;5.78;;;;;;;23.72;51.52;95646.16;5068834;28;20459;-80
2022/08/04 07:44:13;;;;;;;7.38;5.95;;;;;;;23.70;51.27;95638.19;5067599;28;20112;-80
2022/08/04 07:46:38;;;;;;;6.30;5.43;;;;;;;23.45;52.17;95641.47;5085735;28;20068;-80
2022/08/04 07:49:04;;;;;;;7.43;5.68;;;;;;;23.66;51.79;95647.19;5085157;28;20491;-80
2022/08/04 07:51:30;;;;;;;8.30;5.68;;;;;;;23.97;51.36;95646.69;5069194;28;20035;-79
2022/08/04 07:53:55;;;;;;;5.82;5.20;;;;;;;24.15;51.15;95637.31;5067477;28;20095;-80
2022/08/04 07:56:21;;;;;;;9.60;6.07;;;;;;;24.32;51.05;95642.69;5068627;28;20547;-81
2022/08/04 07:58:46;;;;;;;7.75;5.35;;;;;;;24.47;51.12;95633.78;5051190;28;20502;-80
2022/08/04 08:01:11;;;;;;;8.18;5.65;;;;;;;24.48;50.24;95635.44;5067060;28;20048;-79
2022/08/04 08:03:37;;;;;;;7.30;4.55;;;;;;;24.56;48.49;95637.69;5067396;28;20107;-81
2022/08/04 08:06:03;;;;;;;6.78;4.75;;;;;;;24.66;49.56;95634.22;5066491;28;20066;-79
2022/08/04 08:08:28;;;;;;;7.72;5.10;;;;;;;24.71;48.12;95632.59;5086845;28;20486;-81
2022/08/04 08:10:54;;;;;;;8.32;5.22;;;;;;;24.55;48.86;95632.47;5083455;28;20024;-80
2022/08/04 08:13:19;;;;;;;15.50;5.78;;;;;;;24.43;48.65;95635.38;5085161;28;20085;-79
2022/08/04 08:15:45;;;;;;;8.75;5.13;;;;;;;24.51;49.24;95640.38;5049379;28;20032;-79
2022/08/04 08:18:11;;;;;;;5.97;4.70;;;;;;;24.52;48.57;95639.28;5067666;28;20052;-79
2022/08/04 08:20:36;;;;;;;7.65;4.78;;;;;;;24.32;48.82;95642.69;5084825;28;20071;-81
2022/08/04 08:23:02;;;;;;;8.60;5.13;;;;;;;24.51;49.20;95645.03;5084602;28;20024;-82
2022/08/04 08:25:30;;;;;;;6.53;5.40;;;;;;;24.86;50.10;95637.38;5085409;28;20024;-79
2022/08/04 08:27:55;;;;;;;5.40;4.85;;;;;;;25.04;48.92;95641.59;5082977;28;20050;-80
2022/08/04 08:30:21;;;;;;;7.35;4.75;;;;;;;25.02;47.83;95639.13;5084060;28;20458;-80
2022/08/04 08:32:46;;;;;;;8.07;5.80;;;;;;;24.76;48.05;95638.91;5082712;28;20422;-80
2022/08/04 08:35:11;;;;;;;9.48;5.60;;;;;;;24.81;47.85;95647.19;5084012;28;20024;-79
2022/08/04 08:37:45;;;;;;;7.03;4.72;;;;;;;25.06;47.37;95644.91;5065951;28;20035;-79
2022/08/04 08:40:32;;;;;;;5.47;4.63;;;;;;;24.83;47.12;95646.94;5049884;28;20384;-79
2022/08/04 08:43:22;;;;;;;7.40;4.57;;;;;;;24.76;47.65;95643.59;5070302;28;20032;-80
2022/08/04 08:46:18;;;;;;;7.20;4.55;;;;;;;24.47;48.43;95639.28;5087602;28;20067;-80
2022/08/04 08:48:52;;;;;;;5.88;4.43;;;;;;;24.52;48.80;95642.03;5088701;28;20089;-80
2022/08/04 08:51:52;;;;;;;8.75;4.68;;;;;;;24.41;49.42;95634.81;5087013;28;20035;-80
2022/08/04 08:54:40;;;;;;;5.75;5.15;;;;;;;24.59;49.01;95636.34;5087188;28;20024;-80
2022/08/04 08:57:27;;;;;;;18.08;4.80;;;;;;;24.93;50.60;95635.22;5087721;28;20935;-81
2022/08/04 09:00:11;;;;;;;6.93;4.97;;;;;;;25.06;49.21;95631.19;5088449;28;20050;-80
2022/08/04 09:02:42;;;;;;;14.40;4.93;;;;;;;24.66;48.82;95631.47;5086286;28;20047;-80
2022/08/04 09:05:23;;;;;;;5.10;4.53;;;;;;;24.62;49.41;95629.53;5089194;28;20890;-80
2022/08/04 09:08:10;;;;;;;7.07;5.00;;;;;;;24.57;49.36;95628.38;5086156;28;20173;-80
2022/08/04 09:10:58;;;;;;;7.40;4.80;;;;;;;24.67;49.81;95626.78;5088004;28;20028;-80
2022/08/04 09:13:55;;;;;;;8.85;4.97;;;;;;;24.54;49.32;95626.16;5086959;28;20108;-80
2022/08/04 09:16:41;;;;;;;5.00;4.25;;;;;;;24.83;48.97;95618.69;5065411;28;20123;-79
2022/08/04 09:19:29;;;;;;;7.43;4.63;;;;;;;25.30;50.00;95622.53;5070162;28;20070;-82
2022/08/04 09:22:16;;;;;;;6.28;4.28;;;;;;;25.39;47.77;95607.22;5071852;28;20429;-81
2022/08/04 09:24:57;;;;;;;5.82;3.78;;;;;;;25.13;47.58;95611.75;5086841;28;20060;-80
2022/08/04 09:27:30;;;;;;;4.80;3.65;;;;;;;25.20;47.71;95608.78;5070708;28;20028;-80
2022/08/04 09:30:04;;;;;;;4.85;3.45;;;;;;;25.17;48.33;95616.44;5086784;28;20028;-81
2022/08/04 09:32:49;;;;;;;5.55;3.90;;;;;;;25.43;48.01;95616.56;5070239;28;20039;-81
2022/08/04 09:35:39;;;;;;;5.85;3.80;;;;;;;25.63;46.65;95616.97;5088466;28;20047;-80
2022/08/04 09:38:36;;;;;;;7.72;4.22;;;;;;;25.52;46.36;95611.38;5086868;28;20036;-81
2022/08/04 09:41:03;;;;;;;6.00;3.58;;;;;;;26.03;46.81;95612.66;5083472;28;20097;-80
2022/08/04 09:43:36;;;;;;;5.45;3.35;;;;;;;26.26;45.71;95617.91;5086392;28;20478;-81
2022/08/04 09:46:09;;;;;;;4.10;3.08;;;;;;;26.31;44.29;95612.41;5085338;28;20061;-81
2022/08/04 09:48:59;;;;;;;5.55;3.00;;;;;;;25.85;42.52;95610.41;5070429;28;20031;-79
2022/08/04 09:51:50;;;;;;;3.17;2.50;;;;;;;26.26;40.61;95609.69;5086879;28;20241;-80
2022/08/04 09:54:20;;;;;;;5.03;2.60;;;;;;;26.54;42.38;95605.59;5087019;28;20502;-81
2022/08/04 09:57:20;;;;;;;5.93;2.72;;;;;;;26.62;42.12;95609.69;5087848;28;20489;-81
2022/08/04 10:00:01;;;;;;;4.07;2.70;;;;;;;26.48;39.56;95603.09;5086050;28;20494;-79
2022/08/04 10:02:28;;;;;;;3.67;2.40;;;;;;;26.23;39.55;95593.72;5087639;28;20020;-79
2022/08/04 10:04:54;;;;;;;3.15;2.55;;;;;;;26.41;39.81;95595.13;5069531;28;20054;-80
2022/08/04 10:07:40;;;;;;;3.28;2.67;;;;;;;26.40;40.28;95583.31;5068866;28;20056;-80
2022/08/04 10:10:44;;;;;;;3.25;2.40;;;;;;;26.49;39.47;95594.56;5086766;28;20107;-79
2022/08/04 10:13:51;;;;;;;4.13;2.58;;;;;;;26.73;39.26;95591.25;5086418;28;20552;-81
2022/08/04 10:16:34;;;;;;;4.00;2.40;;;;;;;26.76;39.59;95584.38;5049776;28;20048;-80
2022/08/04 10:19:08;;;;;;;5.47;2.80;;;;;;;26.50;39.52;95585.22;5086858;28;20028;-81
2022/08/04 10:21:55;;;;;;;3.17;2.65;;;;;;;26.44;40.11;95582.78;5084575;28;20491;-80
2022/08/04 10:24:29;;;;;;;6.40;2.78;;;;;;;26.53;38.86;95581.09;5086795;28;20027;-79
2022/08/04 10:27:07;;;;;;;3.72;2.80;;;;;;;26.50;40.01;95582.47;5069197;28;20600;-80
2022/08/04 10:29:45;;;;;;;3.60;2.88;;;;;;;26.51;39.78;95575.88;5051456;28;20031;-80
2022/08/04 10:32:18;;;;;;;3.08;2.63;;;;;;;26.56;39.63;95579.72;5052860;28;20048;-81
2022/08/04 10:35:01;;;;;;;3.95;2.58;;;;;;;26.69;39.91;95578.34;5084710;28;20380;-81
2022/08/04 10:37:48;;;;;;;5.93;2.60;;;;;;;26.56;39.01;95575.06;5085329;28;20092;-80
2022/08/04 10:40:39;;;;;;;7.30;3.03;;;;;;;26.42;38.30;95574.78;5086012;28;20034;-80
2022/08/04 10:43:11;;;;;;;3.83;2.30;;;;;;;26.48;37.38;95570.94;5070233;28;20024;-80
2022/08/04 10:45:44;;;;;;;2.83;2.38;;;;;;;26.41;37.93;95573.13;5087476;28;20641;-81
2022/08/04 10:48:18;;;;;;;4.05;2.10;;;;;;;26.39;37.62;95576.16;5068794;28;20036;-80
2022/08/04 10:50:49;;;;;;;3.83;2.88;;;;;;;26.42;37.17;95563.78;5085581;28;20483;-81
2022/08/04 10:53:19;;;;;;;6.70;2.33;;;;;;;26.39;36.92;95572.59;5069267;28;20047;-81
2022/08/04 10:55:56;;;;;;;2.72;2.10;;;;;;;26.54;35.78;95567.09;5050364;28;20570;-81
2022/08/04 10:58:25;;;;;;;5.25;2.20;;;;;;;26.31;35.52;95567.63;5070543;28;20466;-80
2022/08/04 11:00:55;;;;;;;3.00;2.33;;;;;;;26.36;35.90;95562.97;5084121;28;20056;-80
2022/08/04 11:03:25;;;;;;;4.07;2.13;;;;;;;26.43;35.23;95557.19;5068867;28;20556;-81
2022/08/04 11:05:55;;;;;;;2.35;1.80;;;;;;;26.71;32.58;95560.47;5067812;28;20435;-81
2022/08/04 11:08:38;;;;;;;4.05;1.88;;;;;;;27.00;33.87;95557.09;5084417;28;20069;-82
2022/08/04 11:11:43;;;;;;;6.07;2.15;;;;;;;27.16;34.80;95557.06;5051878;28;20023;-81
2022/08/04 11:14:14;;;;;;;4.72;1.75;;;;;;;27.13;32.08;95552.94;5067982;28;20028;-80
2022/08/04 11:16:56;;;;;;;2.13;1.60;;;;;;;27.15;28.26;95542.47;5068067;28;20106;-80
2022/08/04 11:19:40;;;;;;;4.60;1.80;;;;;;;27.32;29.20;95541.31;5085479;28;20032;-81
2022/08/04 11:22:08;;;;;;;2.25;1.50;;;;;;;27.53;28.77;95533.75;5084860;28;20070;-81
2022/08/04 11:25:12;;;;;;;3.85;2.20;;;;;;;27.79;28.47;95537.50;5068672;28;20035;-81
2022/08/04 11:28:03;;;;;;;2.38;1.80;;;;;;;28.18;29.85;95535.88;5085280;28;20043;-81
2022/08/04 11:30:36;;;;;;;2.20;1.60;;;;;;;28.52;29.46;95525.94;5083607;28;20034;-80
2022/08/04 11:33:30;;;;;;;3.70;1.90;;;;;;;27.97;28.57;95522.25;5086274;28;20111;-80
2022/08/04 11:36:21;;;;;;;2.67;1.65;;;;;;;28.11;30.10;95528.75;5053443;28;20031;-80
2022/08/04 11:39:07;;;;;;;2.75;1.83;;;;;;;28.27;29.67;95531.38;5066294;28;20035;-80
2022/08/04 11:42:13;;;;;;;2.90;1.80;;;;;;;28.70;29.96;95533.47;5084930;28;20115;-79
2022/08/04 11:44:54;;;;;;;3.75;1.90;;;;;;;28.86;30.37;95528.63;5030371;28;20050;-80
2022/08/04 11:47:32;;;;;;;3.13;1.70;;;;;;;28.77;30.09;95526.78;5083072;28;20020;-80
2022/08/04 11:50:03;;;;;;;3.33;1.80;;;;;;;28.83;29.82;95531.13;5069792;28;20712;-81
2022/08/04 11:52:28;;;;;;;3.55;1.88;;;;;;;28.59;29.86;95532.75;5083337;28;20052;-82
2022/08/04 11:54:54;;;;;;;6.50;2.08;;;;;;;28.57;30.08;95520.34;5067964;28;20050;-80
2022/08/04 11:57:20;;;;;;;3.00;1.95;;;;;;;28.85;28.89;95524.22;5083566;28;20052;-81
2022/08/04 11:59:47;;;;;;;2.72;1.80;;;;;;;28.87;29.15;95523.94;5050265;28;20439;-80
2022/08/04 12:02:39;;;;;;;3.80;2.03;;;;;;;28.85;28.43;95523.41;5067535;28;20509;-81
2022/08/04 12:05:06;;;;;;;6.43;2.80;;;;;;;28.74;29.43;95526.25;5083311;28;20092;-79
2022/08/04 12:07:52;;;;;;;4.78;2.10;;;;;;;28.72;29.84;95527.66;5084827;28;20028;-84
2022/08/04 12:10:55;;;;;;;4.63;2.50;;;;;;;28.61;29.84;95525.03;5083355;28;20062;-81
2022/08/04 12:13:39;;;;;;;5.25;2.65;;;;;;;28.49;30.46;95528.16;5084313;28;20035;-80
2022/08/04 12:16:19;;;;;;;6.78;2.35;;;;;;;28.38;30.59;95532.13;5071295;28;20047;-79
2022/08/04 12:18:55;;;;;;;3.13;2.17;;;;;;;28.30;30.26;95525.28;5087725;28;20020;-83